sensor_id;sensor_type;location;lat;lon;timestamp;pressure;altitude;pressure_sealevel;temperature;humidity
12624;BME280;6377;42.836;23.998;2023-04-27T00:00:07;95291.81;;;9.40;92.13
12624;BME280;6377;42.836;23.998;2023-04-27T00:02:36;95242.31;;;9.13;90.32
12624;BME280;6377;42.836;23.998;2023-04-27T00:05:05;95321.81;;;9.62;88.59
12624;BME280;6377;42.836;23.998;2023-04-27T00:07:32;95317.41;;;9.54;89.89
12624;BME280;6377;42.836;23.998;2023-04-27T00:09:59;95304.56;;;9.36;88.50
12624;BME280;6377;42.836;23.998;2023-04-27T00:12:27;95343.19;;;9.67;88.48
12624;BME280;6377;42.836;23.998;2023-04-27T00:14:54;95365.41;;;9.72;87.56
12624;BME280;6377;42.836;23.998;2023-04-27T00:17:21;95334.44;;;9.51;91.73
12624;BME280;6377;42.836;23.998;2023-04-27T00:19:48;95277.94;;;9.09;95.03
12624;BME280;6377;42.836;23.998;2023-04-27T00:22:18;95357.47;;;9.57;95.67
12624;BME280;6377;42.836;23.998;2023-04-27T00:24:45;95315.38;;;9.27;90.80
12624;BME280;6377;42.836;23.998;2023-04-27T00:27:12;95362.03;;;9.64;88.87
12624;BME280;6377;42.836;23.998;2023-04-27T00:29:39;95372.78;;;9.62;90.25
12624;BME280;6377;42.836;23.998;2023-04-27T00:32:08;95362.94;;;9.56;87.71
12624;BME280;6377;42.836;23.998;2023-04-27T00:34:36;95360.66;;;9.53;87.97
12624;BME280;6377;42.836;23.998;2023-04-27T00:37:03;95376.06;;;9.64;92.74
12624;BME280;6377;42.836;23.998;2023-04-27T00:39:34;95372.69;;;9.70;94.82
12624;BME280;6377;42.836;23.998;2023-04-27T00:42:01;95378.09;;;9.77;87.88
12624;BME280;6377;42.836;23.998;2023-04-27T00:44:28;95366.69;;;9.76;93.16
12624;BME280;6377;42.836;23.998;2023-04-27T00:46:57;95346.56;;;9.61;93.32
12624;BME280;6377;42.836;23.998;2023-04-27T00:49:25;95361.16;;;9.71;93.48
12624;BME280;6377;42.836;23.998;2023-04-27T00:51:53;95384.56;;;9.89;95.68
12624;BME280;6377;42.836;23.998;2023-04-27T00:54:21;95373.34;;;10.01;95.79
12624;BME280;6377;42.836;23.998;2023-04-27T00:56:51;95355.53;;;9.89;96.09
12624;BME280;6377;42.836;23.998;2023-04-27T00:59:19;95326.16;;;9.69;97.25
12624;BME280;6377;42.836;23.998;2023-04-27T01:01:46;95332.63;;;9.81;99.58
12624;BME280;6377;42.836;23.998;2023-04-27T01:04:14;95320.44;;;9.80;99.24
12624;BME280;6377;42.836;23.998;2023-04-27T01:06:42;95344.03;;;9.96;92.43
12624;BME280;6377;42.836;23.998;2023-04-27T01:09:10;95350.66;;;9.92;93.65
12624;BME280;6377;42.836;23.998;2023-04-27T01:11:38;95339.22;;;9.85;93.69
12624;BME280;6377;42.836;23.998;2023-04-27T01:14:07;95303.84;;;9.57;86.96
12624;BME280;6377;42.836;23.998;2023-04-27T01:16:35;95350.75;;;9.70;90.50
12624;BME280;6377;42.836;23.998;2023-04-27T01:19:03;95356.13;;;9.76;91.94
12624;BME280;6377;42.836;23.998;2023-04-27T01:21:31;95325.16;;;9.55;99.45
12624;BME280;6377;42.836;23.998;2023-04-27T01:23:59;95383.91;;;10.01;100.00
12624;BME280;6377;42.836;23.998;2023-04-27T01:26:27;95322.97;;;9.59;91.37
12624;BME280;6377;42.836;23.998;2023-04-27T01:28:54;95344.44;;;9.41;93.32
12624;BME280;6377;42.836;23.998;2023-04-27T01:31:21;95400.38;;;9.60;90.63
12624;BME280;6377;42.836;23.998;2023-04-27T01:33:48;95289.84;;;9.05;93.98
12624;BME280;6377;42.836;23.998;2023-04-27T01:36:15;95319.00;;;9.26;93.04
12624;BME280;6377;42.836;23.998;2023-04-27T01:38:43;95309.13;;;9.05;92.28
12624;BME280;6377;42.836;23.998;2023-04-27T01:41:12;95362.47;;;9.52;93.80
12624;BME280;6377;42.836;23.998;2023-04-27T01:43:39;95391.19;;;9.70;91.64
12624;BME280;6377;42.836;23.998;2023-04-27T01:46:07;95395.91;;;9.75;91.45
12624;BME280;6377;42.836;23.998;2023-04-27T01:48:35;95389.56;;;9.84;91.97
12624;BME280;6377;42.836;23.998;2023-04-27T01:51:02;95388.22;;;9.88;91.46
12624;BME280;6377;42.836;23.998;2023-04-27T01:53:30;95351.47;;;9.64;88.09
12624;BME280;6377;42.836;23.998;2023-04-27T01:55:57;95381.69;;;9.61;86.19
12624;BME280;6377;42.836;23.998;2023-04-27T01:58:27;95389.50;;;9.54;85.71
12624;BME280;6377;42.836;23.998;2023-04-27T02:00:54;95337.84;;;9.00;90.65
12624;BME280;6377;42.836;23.998;2023-04-27T02:03:21;95385.41;;;9.52;93.67
12624;BME280;6377;42.836;23.998;2023-04-27T02:05:48;95395.06;;;9.45;89.75
12624;BME280;6377;42.836;23.998;2023-04-27T02:08:16;95266.22;;;8.51;88.29
12624;BME280;6377;42.836;23.998;2023-04-27T02:10:43;95419.81;;;9.44;89.25
12624;BME280;6377;42.836;23.998;2023-04-27T02:13:10;95258.38;;;8.66;89.76
12624;BME280;6377;42.836;23.998;2023-04-27T02:15:39;95338.19;;;9.20;90.60
12624;BME280;6377;42.836;23.998;2023-04-27T02:18:06;95299.22;;;8.84;89.02
12624;BME280;6377;42.836;23.998;2023-04-27T02:20:34;95170.13;;;8.08;92.63
12624;BME280;6377;42.836;23.998;2023-04-27T02:23:01;95356.38;;;9.15;89.28
12624;BME280;6377;42.836;23.998;2023-04-27T02:25:29;95275.22;;;8.79;90.32
12624;BME280;6377;42.836;23.998;2023-04-27T02:27:56;95337.66;;;9.01;89.95
12624;BME280;6377;42.836;23.998;2023-04-27T02:30:23;95385.44;;;9.29;94.07
12624;BME280;6377;42.836;23.998;2023-04-27T02:32:52;95318.41;;;9.01;94.20
12624;BME280;6377;42.836;23.998;2023-04-27T02:35:20;95202.72;;;8.38;96.47
12624;BME280;6377;42.836;23.998;2023-04-27T02:37:47;95373.28;;;9.43;97.76
12624;BME280;6377;42.836;23.998;2023-04-27T02:40:14;95290.81;;;8.89;94.38
12624;BME280;6377;42.836;23.998;2023-04-27T02:42:42;95328.34;;;9.14;98.69
12624;BME280;6377;42.836;23.998;2023-04-27T02:45:09;95362.81;;;9.35;97.94
12624;BME280;6377;42.836;23.998;2023-04-27T02:47:36;95269.41;;;8.84;93.99
12624;BME280;6377;42.836;23.998;2023-04-27T02:50:06;95391.75;;;9.66;98.67
12624;BME280;6377;42.836;23.998;2023-04-27T02:52:33;95257.22;;;8.83;99.73
12624;BME280;6377;42.836;23.998;2023-04-27T02:55:01;95401.19;;;9.75;99.94
12624;BME280;6377;42.836;23.998;2023-04-27T02:57:28;95401.28;;;9.67;97.24
12624;BME280;6377;42.836;23.998;2023-04-27T02:59:55;95375.53;;;9.09;91.24
12624;BME280;6377;42.836;23.998;2023-04-27T03:02:23;95221.75;;;8.17;92.50
12624;BME280;6377;42.836;23.998;2023-04-27T03:04:53;95225.03;;;8.19;90.25
12624;BME280;6377;42.836;23.998;2023-04-27T03:07:22;95344.19;;;8.91;91.16
12624;BME280;6377;42.836;23.998;2023-04-27T03:09:49;95365.81;;;9.09;92.62
12624;BME280;6377;42.836;23.998;2023-04-27T03:12:16;95338.03;;;8.98;91.10
12624;BME280;6377;42.836;23.998;2023-04-27T03:14:44;95221.75;;;8.17;87.34
12624;BME280;6377;42.836;23.998;2023-04-27T03:17:11;95373.50;;;9.19;90.53
12624;BME280;6377;42.836;23.998;2023-04-27T03:19:38;95232.41;;;8.32;87.06
12624;BME280;6377;42.836;23.998;2023-04-27T03:22:06;95384.38;;;9.38;85.46
12624;BME280;6377;42.836;23.998;2023-04-27T03:24:35;95387.38;;;9.35;86.36
12624;BME280;6377;42.836;23.998;2023-04-27T03:27:02;95269.56;;;8.45;84.60
12624;BME280;6377;42.836;23.998;2023-04-27T03:29:30;95344.81;;;8.93;86.94
12624;BME280;6377;42.836;23.998;2023-04-27T03:31:57;95334.91;;;8.72;84.45
12624;BME280;6377;42.836;23.998;2023-04-27T03:34:24;95287.72;;;8.32;83.37
12624;BME280;6377;42.836;23.998;2023-04-27T03:36:51;95258.06;;;7.99;86.42
12624;BME280;6377;42.836;23.998;2023-04-27T03:39:19;95281.03;;;8.21;82.78
12624;BME280;6377;42.836;23.998;2023-04-27T03:41:47;95408.47;;;8.90;84.00
12624;BME280;6377;42.836;23.998;2023-04-27T03:44:15;95225.81;;;7.66;83.28
12624;BME280;6377;42.836;23.998;2023-04-27T03:46:42;95387.69;;;8.64;82.81
12624;BME280;6377;42.836;23.998;2023-04-27T03:49:09;95329.91;;;8.24;84.61
12624;BME280;6377;42.836;23.998;2023-04-27T03:51:36;95316.06;;;8.30;84.68
12624;BME280;6377;42.836;23.998;2023-04-27T03:54:06;95474.41;;;9.21;79.70
12624;BME280;6377;42.836;23.998;2023-04-27T03:56:34;95363.75;;;8.43;81.40
12624;BME280;6377;42.836;23.998;2023-04-27T03:59:04;95283.03;;;8.11;83.75
12624;BME280;6377;42.836;23.998;2023-04-27T04:01:31;95344.66;;;8.41;86.05
12624;BME280;6377;42.836;23.998;2023-04-27T04:03:59;95245.84;;;7.75;84.60
12624;BME280;6377;42.836;23.998;2023-04-27T04:06:26;95451.00;;;8.95;85.03
12624;BME280;6377;42.836;23.998;2023-04-27T04:08:54;95332.59;;;8.08;85.75
12624;BME280;6377;42.836;23.998;2023-04-27T04:11:21;95426.56;;;8.70;84.79
12624;BME280;6377;42.836;23.998;2023-04-27T04:13:48;95422.66;;;8.58;83.45
12624;BME280;6377;42.836;23.998;2023-04-27T04:16:17;95464.81;;;8.97;82.48
12624;BME280;6377;42.836;23.998;2023-04-27T04:18:44;95460.66;;;9.02;83.29
12624;BME280;6377;42.836;23.998;2023-04-27T04:21:12;95476.78;;;9.08;84.83
12624;BME280;6377;42.836;23.998;2023-04-27T04:23:39;95463.09;;;9.12;82.51
12624;BME280;6377;42.836;23.998;2023-04-27T04:26:06;95415.47;;;8.75;81.24
12624;BME280;6377;42.836;23.998;2023-04-27T04:28:35;95486.50;;;9.07;82.78
12624;BME280;6377;42.836;23.998;2023-04-27T04:31:03;95288.06;;;7.90;83.66
12624;BME280;6377;42.836;23.998;2023-04-27T04:33:32;95416.09;;;8.85;81.27
12624;BME280;6377;42.836;23.998;2023-04-27T04:36:02;95375.22;;;8.58;83.36
12624;BME280;6377;42.836;23.998;2023-04-27T04:38:30;95338.28;;;8.35;82.11
12624;BME280;6377;42.836;23.998;2023-04-27T04:40:57;95443.94;;;9.10;81.31
12624;BME280;6377;42.836;23.998;2023-04-27T04:43:24;95485.19;;;9.34;76.78
12624;BME280;6377;42.836;23.998;2023-04-27T04:45:52;95371.63;;;8.51;78.81
12624;BME280;6377;42.836;23.998;2023-04-27T04:48:19;95406.94;;;8.95;77.54
12624;BME280;6377;42.836;23.998;2023-04-27T04:50:48;95478.88;;;9.43;77.23
12624;BME280;6377;42.836;23.998;2023-04-27T04:53:15;95429.97;;;9.10;80.22
12624;BME280;6377;42.836;23.998;2023-04-27T04:55:42;95374.09;;;8.53;76.90
12624;BME280;6377;42.836;23.998;2023-04-27T04:58:10;95345.66;;;8.40;79.17
12624;BME280;6377;42.836;23.998;2023-04-27T05:00:37;95380.47;;;8.58;75.94
12624;BME280;6377;42.836;23.998;2023-04-27T05:03:04;95488.16;;;9.39;78.40
12624;BME280;6377;42.836;23.998;2023-04-27T05:05:31;95497.00;;;9.46;77.27
12624;BME280;6377;42.836;23.998;2023-04-27T05:08:00;95467.53;;;9.34;75.15
12624;BME280;6377;42.836;23.998;2023-04-27T05:10:27;95494.94;;;9.56;75.18
12624;BME280;6377;42.836;23.998;2023-04-27T05:12:55;95470.91;;;9.51;75.29
12624;BME280;6377;42.836;23.998;2023-04-27T05:15:22;95502.53;;;9.59;72.93
12624;BME280;6377;42.836;23.998;2023-04-27T05:17:49;95481.41;;;9.36;71.16
12624;BME280;6377;42.836;23.998;2023-04-27T05:20:18;95509.97;;;9.55;74.29
12624;BME280;6377;42.836;23.998;2023-04-27T05:22:45;95518.66;;;9.64;73.57
12624;BME280;6377;42.836;23.998;2023-04-27T05:25:14;95509.19;;;9.70;75.75
12624;BME280;6377;42.836;23.998;2023-04-27T05:27:42;95518.56;;;9.72;75.92
12624;BME280;6377;42.836;23.998;2023-04-27T05:30:10;95517.31;;;9.68;73.61
12624;BME280;6377;42.836;23.998;2023-04-27T05:32:37;95521.16;;;9.57;74.45
12624;BME280;6377;42.836;23.998;2023-04-27T05:35:04;95474.88;;;9.24;76.04
12624;BME280;6377;42.836;23.998;2023-04-27T05:37:32;95518.16;;;9.38;75.35
12624;BME280;6377;42.836;23.998;2023-04-27T05:39:59;95515.59;;;9.22;75.79
12624;BME280;6377;42.836;23.998;2023-04-27T05:42:28;95519.00;;;9.38;77.05
12624;BME280;6377;42.836;23.998;2023-04-27T05:44:55;95521.41;;;9.48;76.20
12624;BME280;6377;42.836;23.998;2023-04-27T05:47:22;95518.09;;;9.46;73.61
12624;BME280;6377;42.836;23.998;2023-04-27T05:49:49;95489.31;;;9.36;74.96
12624;BME280;6377;42.836;23.998;2023-04-27T05:52:17;95522.28;;;9.63;74.34
12624;BME280;6377;42.836;23.998;2023-04-27T05:54:45;95532.75;;;9.56;70.78
12624;BME280;6377;42.836;23.998;2023-04-27T05:57:13;95525.19;;;9.45;71.10
12624;BME280;6377;42.836;23.998;2023-04-27T05:59:42;95536.53;;;9.54;72.42
12624;BME280;6377;42.836;23.998;2023-04-27T06:02:09;95534.56;;;9.56;69.78
12624;BME280;6377;42.836;23.998;2023-04-27T06:04:36;95473.97;;;9.09;69.88
12624;BME280;6377;42.836;23.998;2023-04-27T06:07:07;95472.16;;;9.10;71.81
12624;BME280;6377;42.836;23.998;2023-04-27T06:09:35;95492.94;;;9.13;68.84
12624;BME280;6377;42.836;23.998;2023-04-27T06:12:02;95492.59;;;9.16;71.72
12624;BME280;6377;42.836;23.998;2023-04-27T06:14:30;95509.81;;;9.26;71.52
12624;BME280;6377;42.836;23.998;2023-04-27T06:16:58;95502.59;;;9.20;68.49
12624;BME280;6377;42.836;23.998;2023-04-27T06:19:26;95490.44;;;9.11;66.38
12624;BME280;6377;42.836;23.998;2023-04-27T06:21:53;95540.41;;;9.43;66.98
12624;BME280;6377;42.836;23.998;2023-04-27T06:24:21;95492.59;;;9.08;67.38
12624;BME280;6377;42.836;23.998;2023-04-27T06:26:49;95476.34;;;8.96;66.01
12624;BME280;6377;42.836;23.998;2023-04-27T06:29:16;95497.53;;;9.19;68.43
12624;BME280;6377;42.836;23.998;2023-04-27T06:31:43;95477.13;;;9.05;66.74
12624;BME280;6377;42.836;23.998;2023-04-27T06:34:13;95499.75;;;9.30;67.18
12624;BME280;6377;42.836;23.998;2023-04-27T06:36:40;95541.66;;;9.55;67.23
12624;BME280;6377;42.836;23.998;2023-04-27T06:39:07;95491.41;;;9.18;66.69
12624;BME280;6377;42.836;23.998;2023-04-27T06:41:34;95516.00;;;9.41;65.68
12624;BME280;6377;42.836;23.998;2023-04-27T06:44:01;95506.00;;;9.29;65.08
12624;BME280;6377;42.836;23.998;2023-04-27T06:46:29;95470.31;;;9.18;64.03
12624;BME280;6377;42.836;23.998;2023-04-27T06:48:56;95476.81;;;9.30;64.00
12624;BME280;6377;42.836;23.998;2023-04-27T06:51:28;95538.38;;;9.76;64.23
12624;BME280;6377;42.836;23.998;2023-04-27T06:53:56;95479.88;;;9.42;63.04
12624;BME280;6377;42.836;23.998;2023-04-27T06:56:23;95491.44;;;9.41;63.75
12624;BME280;6377;42.836;23.998;2023-04-27T06:58:50;95488.53;;;9.28;63.99
12624;BME280;6377;42.836;23.998;2023-04-27T07:01:17;95529.34;;;9.48;62.31
12624;BME280;6377;42.836;23.998;2023-04-27T07:03:45;95499.91;;;9.28;62.03
12624;BME280;6377;42.836;23.998;2023-04-27T07:06:12;95500.94;;;9.27;62.68
12624;BME280;6377;42.836;23.998;2023-04-27T07:08:41;95541.97;;;9.83;64.65
12624;BME280;6377;42.836;23.998;2023-04-27T07:11:08;95498.09;;;9.51;61.53
12624;BME280;6377;42.836;23.998;2023-04-27T07:13:35;95461.22;;;9.21;61.20
12624;BME280;6377;42.836;23.998;2023-04-27T07:16:03;95522.59;;;9.68;61.22
12624;BME280;6377;42.836;23.998;2023-04-27T07:18:30;95501.22;;;9.55;61.55
12624;BME280;6377;42.836;23.998;2023-04-27T07:20:57;95551.47;;;10.07;60.73
12624;BME280;6377;42.836;23.998;2023-04-27T07:23:24;95548.56;;;10.25;61.86
12624;BME280;6377;42.836;23.998;2023-04-27T07:25:53;95498.19;;;10.03;57.71
12624;BME280;6377;42.836;23.998;2023-04-27T07:28:20;95550.84;;;10.28;60.11
12624;BME280;6377;42.836;23.998;2023-04-27T07:30:48;95552.97;;;10.09;59.11
12624;BME280;6377;42.836;23.998;2023-04-27T07:33:15;95523.47;;;9.83;59.91
12624;BME280;6377;42.836;23.998;2023-04-27T07:35:42;95547.44;;;10.19;59.26
12624;BME280;6377;42.836;23.998;2023-04-27T07:38:09;95501.59;;;9.89;60.37
12624;BME280;6377;42.836;23.998;2023-04-27T07:40:37;95472.06;;;9.71;57.87
12624;BME280;6377;42.836;23.998;2023-04-27T07:43:06;95469.09;;;9.66;56.82
12624;BME280;6377;42.836;23.998;2023-04-27T07:45:33;95527.34;;;10.10;55.55
12624;BME280;6377;42.836;23.998;2023-04-27T07:48:04;95467.06;;;9.76;57.54
12624;BME280;6377;42.836;23.998;2023-04-27T07:50:31;95529.16;;;10.18;59.84
12624;BME280;6377;42.836;23.998;2023-04-27T07:52:59;95485.22;;;9.94;58.55
12624;BME280;6377;42.836;23.998;2023-04-27T07:55:26;95483.34;;;10.02;57.47
12624;BME280;6377;42.836;23.998;2023-04-27T07:57:54;95547.34;;;10.50;56.43
12624;BME280;6377;42.836;23.998;2023-04-27T08:00:23;95541.31;;;10.41;57.69
12624;BME280;6377;42.836;23.998;2023-04-27T08:02:52;95489.69;;;10.31;57.08
12624;BME280;6377;42.836;23.998;2023-04-27T08:05:19;95481.75;;;10.31;53.50
12624;BME280;6377;42.836;23.998;2023-04-27T08:07:47;95550.25;;;10.55;55.75
12624;BME280;6377;42.836;23.998;2023-04-27T08:10:14;95548.97;;;10.51;53.25
12624;BME280;6377;42.836;23.998;2023-04-27T08:12:41;95573.44;;;10.67;56.26
12624;BME280;6377;42.836;23.998;2023-04-27T08:15:10;95440.28;;;10.17;54.98
12624;BME280;6377;42.836;23.998;2023-04-27T08:17:38;95377.78;;;9.72;51.19
12624;BME280;6377;42.836;23.998;2023-04-27T08:20:07;95385.28;;;9.68;53.09
12624;BME280;6377;42.836;23.998;2023-04-27T08:22:36;95531.84;;;10.76;52.05
12624;BME280;6377;42.836;23.998;2023-04-27T08:25:03;95545.53;;;10.80;53.26
12624;BME280;6377;42.836;23.998;2023-04-27T08:27:31;95555.28;;;10.94;51.04
12624;BME280;6377;42.836;23.998;2023-04-27T08:29:59;95557.19;;;11.00;52.57
12624;BME280;6377;42.836;23.998;2023-04-27T08:32:26;95555.16;;;11.16;51.98
12624;BME280;6377;42.836;23.998;2023-04-27T08:34:55;95515.13;;;11.05;49.49
12624;BME280;6377;42.836;23.998;2023-04-27T08:37:23;95545.94;;;11.27;51.06
12624;BME280;6377;42.836;23.998;2023-04-27T08:39:50;95545.13;;;11.27;49.95
12624;BME280;6377;42.836;23.998;2023-04-27T08:42:17;95555.34;;;11.30;49.86
12624;BME280;6377;42.836;23.998;2023-04-27T08:44:44;95551.66;;;11.31;52.02
12624;BME280;6377;42.836;23.998;2023-04-27T08:47:11;95548.38;;;11.43;49.15
12624;BME280;6377;42.836;23.998;2023-04-27T08:49:38;95547.47;;;11.36;49.74
12624;BME280;6377;42.836;23.998;2023-04-27T08:52:13;95550.06;;;11.30;48.82
12624;BME280;6377;42.836;23.998;2023-04-27T08:54:40;95537.63;;;11.15;50.01
12624;BME280;6377;42.836;23.998;2023-04-27T08:57:09;95546.03;;;11.19;50.01
12624;BME280;6377;42.836;23.998;2023-04-27T08:59:37;95544.47;;;11.24;49.49
12624;BME280;6377;42.836;23.998;2023-04-27T09:02:04;95463.91;;;10.77;51.48
12624;BME280;6377;42.836;23.998;2023-04-27T09:04:38;95545.88;;;11.56;50.62
12624;BME280;6377;42.836;23.998;2023-04-27T09:07:11;95541.38;;;11.71;51.08
12624;BME280;6377;42.836;23.998;2023-04-27T09:09:39;95545.38;;;11.67;50.57
12624;BME280;6377;42.836;23.998;2023-04-27T09:12:16;95539.09;;;11.90;52.87
12624;BME280;6377;42.836;23.998;2023-04-27T09:14:52;95536.88;;;11.72;50.04
12624;BME280;6377;42.836;23.998;2023-04-27T09:17:24;95538.69;;;11.50;49.92
12624;BME280;6377;42.836;23.998;2023-04-27T09:20:02;95496.66;;;11.26;51.99
12624;BME280;6377;42.836;23.998;2023-04-27T09:22:42;95484.31;;;11.18;52.83
12624;BME280;6377;42.836;23.998;2023-04-27T09:25:21;95532.31;;;11.66;51.15
12624;BME280;6377;42.836;23.998;2023-04-27T09:27:48;95536.75;;;11.80;51.48
12624;BME280;6377;42.836;23.998;2023-04-27T09:30:17;95533.34;;;12.07;49.77
12624;BME280;6377;42.836;23.998;2023-04-27T09:32:55;95514.28;;;12.18;50.15
12624;BME280;6377;42.836;23.998;2023-04-27T09:35:24;95526.81;;;12.31;47.36
12624;BME280;6377;42.836;23.998;2023-04-27T09:37:54;95489.88;;;12.02;47.52
12624;BME280;6377;42.836;23.998;2023-04-27T09:40:23;95517.22;;;12.30;47.46
12624;BME280;6377;42.836;23.998;2023-04-27T09:42:53;95515.88;;;12.41;46.16
12624;BME280;6377;42.836;23.998;2023-04-27T09:45:22;95511.91;;;12.30;49.42
12624;BME280;6377;42.836;23.998;2023-04-27T09:47:49;95516.13;;;12.46;50.42
12624;BME280;6377;42.836;23.998;2023-04-27T09:50:17;95451.66;;;12.17;47.65
12624;BME280;6377;42.836;23.998;2023-04-27T09:52:44;95494.22;;;12.65;49.34
12624;BME280;6377;42.836;23.998;2023-04-27T09:55:15;95508.72;;;12.69;49.15
12624;BME280;6377;42.836;23.998;2023-04-27T09:57:52;95507.75;;;12.76;46.90
12624;BME280;6377;42.836;23.998;2023-04-27T10:00:29;95495.63;;;13.02;45.43
12624;BME280;6377;42.836;23.998;2023-04-27T10:03:14;95490.00;;;13.11;44.31
12624;BME280;6377;42.836;23.998;2023-04-27T10:08:49;95488.25;;;13.38;44.07
12624;BME280;6377;42.836;23.998;2023-04-27T10:11:18;95371.13;;;12.59;44.38
12624;BME280;6377;42.836;23.998;2023-04-27T10:13:52;95471.34;;;12.64;43.13
12624;BME280;6377;42.836;23.998;2023-04-27T10:16:20;95497.16;;;12.49;44.89
12624;BME280;6377;42.836;23.998;2023-04-27T10:18:50;95508.78;;;12.48;44.00
12624;BME280;6377;42.836;23.998;2023-04-27T10:21:18;95501.19;;;12.72;43.18
12624;BME280;6377;42.836;23.998;2023-04-27T10:23:46;95489.88;;;12.57;42.67
12624;BME280;6377;42.836;23.998;2023-04-27T10:26:26;95501.31;;;12.58;43.23
12624;BME280;6377;42.836;23.998;2023-04-27T10:28:59;95492.22;;;12.73;41.97
12624;BME280;6377;42.836;23.998;2023-04-27T10:31:30;95485.63;;;13.04;42.73
12624;BME280;6377;42.836;23.998;2023-04-27T10:34:07;95441.81;;;12.80;43.58
12624;BME280;6377;42.836;23.998;2023-04-27T10:36:36;95485.59;;;13.44;42.02
12624;BME280;6377;42.836;23.998;2023-04-27T10:39:14;95482.22;;;13.96;40.20
12624;BME280;6377;42.836;23.998;2023-04-27T10:41:50;95493.47;;;14.44;39.47
12624;BME280;6377;42.836;23.998;2023-04-27T10:44:18;95494.91;;;14.60;41.51
12624;BME280;6377;42.836;23.998;2023-04-27T10:46:49;95493.66;;;14.69;38.16
12624;BME280;6377;42.836;23.998;2023-04-27T10:49:17;95497.56;;;14.53;38.06
12624;BME280;6377;42.836;23.998;2023-04-27T10:51:44;95486.19;;;14.97;37.75
12624;BME280;6377;42.836;23.998;2023-04-27T10:54:12;95487.25;;;14.90;37.00
12624;BME280;6377;42.836;23.998;2023-04-27T10:56:39;95507.78;;;14.24;37.83
12624;BME280;6377;42.836;23.998;2023-04-27T10:59:09;95382.13;;;13.10;38.60
12624;BME280;6377;42.836;23.998;2023-04-27T11:01:36;95354.69;;;12.90;39.52
12624;BME280;6377;42.836;23.998;2023-04-27T11:04:04;95508.25;;;13.34;39.59
12624;BME280;6377;42.836;23.998;2023-04-27T11:06:31;95482.47;;;12.87;40.28
12624;BME280;6377;42.836;23.998;2023-04-27T11:09:00;95506.31;;;13.08;42.02
12624;BME280;6377;42.836;23.998;2023-04-27T11:11:27;95492.72;;;12.90;42.04
12624;BME280;6377;42.836;23.998;2023-04-27T11:13:54;95480.47;;;13.36;41.48
12624;BME280;6377;42.836;23.998;2023-04-27T11:16:23;95479.56;;;14.36;40.45
12624;BME280;6377;42.836;23.998;2023-04-27T11:18:51;95484.25;;;14.53;38.02
12624;BME280;6377;42.836;23.998;2023-04-27T11:21:18;95484.88;;;14.36;38.66
12624;BME280;6377;42.836;23.998;2023-04-27T11:23:46;95497.81;;;14.32;38.61
12624;BME280;6377;42.836;23.998;2023-04-27T11:26:15;95509.63;;;14.17;39.20
12624;BME280;6377;42.836;23.998;2023-04-27T11:28:43;95506.97;;;13.90;37.90
12624;BME280;6377;42.836;23.998;2023-04-27T11:31:10;95496.31;;;13.90;38.43
12624;BME280;6377;42.836;23.998;2023-04-27T11:33:47;95476.69;;;13.98;39.09
12624;BME280;6377;42.836;23.998;2023-04-27T11:36:17;95470.09;;;14.79;37.02
12624;BME280;6377;42.836;23.998;2023-04-27T11:38:45;95471.03;;;15.04;36.71
12624;BME280;6377;42.836;23.998;2023-04-27T11:41:13;95443.91;;;14.56;34.66
12624;BME280;6377;42.836;23.998;2023-04-27T11:43:41;95479.94;;;14.66;36.59
12624;BME280;6377;42.836;23.998;2023-04-27T11:46:10;95482.88;;;14.38;36.84
12624;BME280;6377;42.836;23.998;2023-04-27T11:48:39;95501.03;;;14.01;36.22
12624;BME280;6377;42.836;23.998;2023-04-27T11:51:09;95516.81;;;14.03;36.90
12624;BME280;6377;42.836;23.998;2023-04-27T11:53:37;95507.16;;;13.82;38.08
12624;BME280;6377;42.836;23.998;2023-04-27T11:56:06;95502.34;;;13.45;37.64
12624;BME280;6377;42.836;23.998;2023-04-27T11:58:35;95507.13;;;13.76;38.33
12624;BME280;6377;42.836;23.998;2023-04-27T12:01:03;95507.59;;;13.99;37.37
12624;BME280;6377;42.836;23.998;2023-04-27T12:03:30;95507.19;;;14.28;37.08
12624;BME280;6377;42.836;23.998;2023-04-27T12:05:59;95501.91;;;14.35;36.11
12624;BME280;6377;42.836;23.998;2023-04-27T12:08:26;95496.75;;;14.59;37.25
12624;BME280;6377;42.836;23.998;2023-04-27T12:10:54;95483.19;;;14.74;36.16
12624;BME280;6377;42.836;23.998;2023-04-27T12:13:21;95505.13;;;14.76;36.32
12624;BME280;6377;42.836;23.998;2023-04-27T12:15:48;95500.19;;;14.80;36.55
12624;BME280;6377;42.836;23.998;2023-04-27T12:18:16;95499.25;;;15.19;34.62
12624;BME280;6377;42.836;23.998;2023-04-27T12:20:43;95449.47;;;14.48;34.20
12624;BME280;6377;42.836;23.998;2023-04-27T12:23:11;95497.41;;;14.35;35.32
12624;BME280;6377;42.836;23.998;2023-04-27T12:25:38;95501.66;;;14.17;35.54
12624;BME280;6377;42.836;23.998;2023-04-27T12:28:08;95517.00;;;14.01;35.34
12624;BME280;6377;42.836;23.998;2023-04-27T12:30:36;95496.09;;;13.92;36.53
12624;BME280;6377;42.836;23.998;2023-04-27T12:33:03;95508.97;;;13.75;36.91
12624;BME280;6377;42.836;23.998;2023-04-27T12:35:35;95510.41;;;13.78;37.03
12624;BME280;6377;42.836;23.998;2023-04-27T12:38:02;95492.25;;;14.14;36.92
12624;BME280;6377;42.836;23.998;2023-04-27T12:40:32;95483.94;;;15.01;34.89
12624;BME280;6377;42.836;23.998;2023-04-27T12:42:59;95487.88;;;15.43;33.42
12624;BME280;6377;42.836;23.998;2023-04-27T12:45:26;95482.91;;;15.08;33.48
12624;BME280;6377;42.836;23.998;2023-04-27T12:47:53;95491.09;;;15.07;33.88
12624;BME280;6377;42.836;23.998;2023-04-27T12:50:20;95494.53;;;14.37;34.28
12624;BME280;6377;42.836;23.998;2023-04-27T12:52:47;95501.25;;;14.20;35.62
12624;BME280;6377;42.836;23.998;2023-04-27T12:55:15;95508.59;;;13.98;35.74
12624;BME280;6377;42.836;23.998;2023-04-27T12:57:44;95488.34;;;13.84;37.93
12624;BME280;6377;42.836;23.998;2023-04-27T13:00:12;95513.09;;;13.97;37.06
12624;BME280;6377;42.836;23.998;2023-04-27T13:02:40;95517.38;;;13.92;36.89
12624;BME280;6377;42.836;23.998;2023-04-27T13:05:08;95513.28;;;14.09;37.90
12624;BME280;6377;42.836;23.998;2023-04-27T13:07:36;95522.13;;;14.16;36.87
12624;BME280;6377;42.836;23.998;2023-04-27T13:10:04;95506.00;;;14.37;36.68
12624;BME280;6377;42.836;23.998;2023-04-27T13:12:31;95517.81;;;14.22;35.78
12624;BME280;6377;42.836;23.998;2023-04-27T13:15:00;95506.19;;;14.49;37.19